Time;durP1;ratioP1;P1;durP2;ratioP2;P2;SDS_P1;SDS_P2;PMS_P1;PMS_P2;Temp;Humidity;BMP_temperature;BMP_pressure;BME280_temperature;BME280_humidity;BME280_pressure;Samples;Min_cycle;Max_cycle;Signal;HPM_P1;HPM_P2
2021/06/24 00:01:04;;;;;;;2.28;1.45;;;;;;;;;;5096155;28;20361;-61
2021/06/24 00:03:31;;;;;;;3.55;2.22;;;;;;;;;;5096121;28;20024;-61
2021/06/24 00:05:58;;;;;;;3.80;1.88;;;;;;;;;;5095897;28;20031;-61
2021/06/24 00:08:24;;;;;;;5.18;2.53;;;;;;;;;;5094268;28;20028;-62
2021/06/24 00:10:52;;;;;;;2.55;1.58;;;;;;;;;;5095936;28;20024;-61
2021/06/24 00:13:18;;;;;;;4.05;2.88;;;;;;;;;;5095949;28;20059;-60
2021/06/24 00:15:44;;;;;;;3.80;2.47;;;;;;;;;;5095493;28;20028;-60
2021/06/24 00:18:13;;;;;;;3.03;2.42;;;;;;;;;;5095501;28;20069;-60
2021/06/24 00:20:40;;;;;;;4.38;1.90;;;;;;;;;;5095568;28;20073;-60
2021/06/24 00:23:06;;;;;;;2.47;1.75;;;;;;;;;;5095751;28;20031;-59
2021/06/24 00:25:32;;;;;;;2.40;1.80;;;;;;;;;;5095589;28;20118;-59
2021/06/24 00:27:58;;;;;;;3.70;2.28;;;;;;;;;;5096029;28;20095;-59
2021/06/24 00:30:25;;;;;;;3.03;1.98;;;;;;;;;;5095122;28;20020;-60
2021/06/24 00:32:51;;;;;;;2.80;1.77;;;;;;;;;;5095431;28;20162;-59
2021/06/24 00:35:17;;;;;;;3.35;2.28;;;;;;;;;;5095094;28;20073;-60
2021/06/24 00:37:43;;;;;;;3.38;2.92;;;;;;;;;;5095011;28;20035;-59
2021/06/24 00:40:11;;;;;;;6.00;3.70;;;;;;;;;;5095060;28;20028;-59
2021/06/24 00:42:37;;;;;;;4.22;3.20;;;;;;;;;;5093704;28;20035;-60
2021/06/24 00:45:04;;;;;;;3.88;3.28;;;;;;;;;;5094928;28;20382;-59
2021/06/24 00:47:30;;;;;;;3.70;3.17;;;;;;;;;;5094880;28;20031;-59
2021/06/24 00:49:56;;;;;;;5.47;3.97;;;;;;;;;;5094733;28;20028;-59
2021/06/24 00:52:22;;;;;;;4.18;3.78;;;;;;;;;;5095066;28;20032;-60
2021/06/24 00:54:48;;;;;;;6.13;4.40;;;;;;;;;;5094164;28;20031;-59
2021/06/24 00:57:14;;;;;;;5.00;4.50;;;;;;;;;;5093672;28;20383;-60
2021/06/24 00:59:41;;;;;;;5.50;4.95;;;;;;;;;;5094017;28;20024;-60
2021/06/24 01:02:07;;;;;;;4.75;4.20;;;;;;;;;;5094591;28;20359;-60
2021/06/24 01:04:33;;;;;;;6.05;5.45;;;;;;;;;;5094524;28;20020;-60
2021/06/24 01:06:59;;;;;;;4.82;4.18;;;;;;;;;;5094478;28;20370;-60
2021/06/24 01:09:25;;;;;;;5.93;5.25;;;;;;;;;;5093023;28;20044;-60
2021/06/24 01:11:54;;;;;;;6.18;4.63;;;;;;;;;;5094638;28;20057;-60
2021/06/24 01:14:20;;;;;;;6.07;5.30;;;;;;;;;;5094321;28;20032;-60
2021/06/24 01:16:46;;;;;;;5.15;4.60;;;;;;;;;;5093020;28;20024;-60
2021/06/24 01:19:13;;;;;;;5.32;4.82;;;;;;;;;;5094830;28;20028;-60
2021/06/24 01:21:39;;;;;;;6.10;4.88;;;;;;;;;;5095087;28;20031;-60
2021/06/24 01:24:05;;;;;;;5.28;4.47;;;;;;;;;;5094454;28;20362;-60
2021/06/24 01:26:31;;;;;;;5.10;4.22;;;;;;;;;;5093963;28;20020;-60
2021/06/24 01:28:57;;;;;;;5.18;4.68;;;;;;;;;;5094776;28;20039;-60
2021/06/24 01:31:23;;;;;;;4.63;4.22;;;;;;;;;;5094417;28;20028;-60
2021/06/24 01:33:50;;;;;;;4.57;4.18;;;;;;;;;;5094129;28;20040;-60
2021/06/24 01:36:16;;;;;;;5.10;4.30;;;;;;;;;;5093994;28;20035;-60
2021/06/24 01:38:45;;;;;;;5.55;4.43;;;;;;;;;;5093911;28;20032;-61
2021/06/24 01:41:14;;;;;;;4.60;3.65;;;;;;;;;;5094518;28;20027;-60
2021/06/24 01:43:41;;;;;;;4.10;3.60;;;;;;;;;;5093865;28;20024;-61
2021/06/24 01:46:07;;;;;;;4.15;3.70;;;;;;;;;;5094256;28;20031;-60
2021/06/24 01:48:34;;;;;;;4.60;3.47;;;;;;;;;;5094622;28;20024;-60
2021/06/24 01:51:00;;;;;;;4.00;3.47;;;;;;;;;;5093906;28;20109;-60
2021/06/24 01:53:27;;;;;;;7.57;4.10;;;;;;;;;;5093706;28;20032;-61
2021/06/24 01:55:53;;;;;;;3.33;3.03;;;;;;;;;;5094043;28;20028;-60
2021/06/24 01:58:22;;;;;;;4.45;3.33;;;;;;;;;;5093733;28;20102;-60
2021/06/24 02:00:48;;;;;;;3.65;2.90;;;;;;;;;;5093685;28;20085;-60
2021/06/24 02:03:15;;;;;;;4.43;3.45;;;;;;;;;;5093741;28;20067;-60
2021/06/24 02:05:42;;;;;;;4.38;3.33;;;;;;;;;;5093754;28;20032;-61
2021/06/24 02:08:19;;;;;;;3.03;2.70;;;;;;;;;;5094227;28;20036;-60
2021/06/24 02:10:45;;;;;;;3.40;2.53;;;;;;;;;;5093949;28;20441;-60
2021/06/24 02:13:11;;;;;;;8.40;3.00;;;;;;;;;;5094062;28;20093;-60
2021/06/24 02:15:38;;;;;;;3.33;2.75;;;;;;;;;;5093876;28;20020;-60
2021/06/24 02:18:04;;;;;;;3.20;2.42;;;;;;;;;;5093603;28;20102;-60
2021/06/24 02:20:30;;;;;;;5.75;3.00;;;;;;;;;;5093305;28;20024;-61
2021/06/24 02:22:56;;;;;;;3.63;2.70;;;;;;;;;;5093813;28;20035;-60
2021/06/24 02:25:22;;;;;;;3.70;2.88;;;;;;;;;;5094010;28;20070;-61
2021/06/24 02:27:48;;;;;;;3.20;2.38;;;;;;;;;;5093839;28;20477;-60
2021/06/24 02:30:15;;;;;;;4.10;2.72;;;;;;;;;;5093477;28;20035;-60
2021/06/24 02:32:41;;;;;;;4.00;2.78;;;;;;;;;;5095870;28;20028;-60
2021/06/24 02:35:12;;;;;;;2.83;2.53;;;;;;;;;;5096145;28;20055;-61
2021/06/24 02:37:39;;;;;;;2.58;2.17;;;;;;;;;;5097033;28;20465;-60
2021/06/24 02:40:06;;;;;;;3.42;2.55;;;;;;;;;;5097346;28;20429;-60
2021/06/24 02:42:32;;;;;;;3.00;2.50;;;;;;;;;;5097535;28;20487;-60
2021/06/24 02:44:58;;;;;;;3.08;2.38;;;;;;;;;;5097219;28;20032;-60
2021/06/24 02:47:24;;;;;;;3.80;2.75;;;;;;;;;;5097204;28;20517;-60
2021/06/24 02:49:50;;;;;;;5.38;2.95;;;;;;;;;;5097196;28;20055;-60
2021/06/24 02:52:16;;;;;;;3.58;2.70;;;;;;;;;;5097538;28;20036;-60
2021/06/24 02:54:42;;;;;;;3.47;3.08;;;;;;;;;;5097011;28;20016;-60
2021/06/24 02:57:08;;;;;;;4.38;3.92;;;;;;;;;;5096943;28;20026;-60
2021/06/24 02:59:34;;;;;;;4.68;4.18;;;;;;;;;;5096816;28;20107;-60
2021/06/24 03:02:00;;;;;;;5.13;4.63;;;;;;;;;;5097223;28;20032;-60
2021/06/24 03:04:27;;;;;;;6.07;4.32;;;;;;;;;;5097180;28;20110;-61
2021/06/24 03:06:53;;;;;;;4.82;4.32;;;;;;;;;;5096777;28;20061;-60
2021/06/24 03:09:19;;;;;;;5.18;4.15;;;;;;;;;;5097151;28;20059;-61
2021/06/24 03:11:46;;;;;;;4.43;3.67;;;;;;;;;;5096691;28;20107;-60
2021/06/24 03:14:12;;;;;;;4.78;3.38;;;;;;;;;;5096354;28;20519;-60
2021/06/24 03:16:38;;;;;;;4.43;3.70;;;;;;;;;;5097201;28;20035;-60
2021/06/24 03:19:07;;;;;;;3.45;3.15;;;;;;;;;;5096865;28;20240;-60
2021/06/24 03:21:34;;;;;;;3.75;3.10;;;;;;;;;;5097162;28;20028;-60
2021/06/24 03:24:00;;;;;;;4.43;3.17;;;;;;;;;;5096181;28;20028;-60
2021/06/24 03:26:26;;;;;;;5.90;3.25;;;;;;;;;;5096428;28;20032;-61
2021/06/24 03:28:52;;;;;;;5.88;3.33;;;;;;;;;;5096378;28;20024;-60
2021/06/24 03:31:18;;;;;;;3.50;2.63;;;;;;;;;;5096137;28;20026;-60
2021/06/24 03:33:44;;;;;;;5.88;3.25;;;;;;;;;;5096545;28;20399;-60
2021/06/24 03:36:12;;;;;;;3.63;2.60;;;;;;;;;;5096361;28;20017;-60
2021/06/24 03:38:39;;;;;;;3.50;3.03;;;;;;;;;;5096234;28;20024;-60
2021/06/24 03:41:05;;;;;;;4.10;2.90;;;;;;;;;;5096047;28;20025;-60
2021/06/24 03:43:31;;;;;;;4.00;3.60;;;;;;;;;;5096152;28;20403;-60
2021/06/24 03:45:59;;;;;;;3.60;3.13;;;;;;;;;;5096162;28;20099;-60
2021/06/24 03:48:25;;;;;;;3.90;3.38;;;;;;;;;;5096637;28;20047;-60
2021/06/24 03:50:51;;;;;;;3.92;3.53;;;;;;;;;;5096092;28;20462;-60
2021/06/24 03:53:17;;;;;;;4.28;3.88;;;;;;;;;;5095982;28;20093;-60
2021/06/24 03:55:43;;;;;;;4.03;3.33;;;;;;;;;;5096261;28;20402;-60
2021/06/24 03:58:10;;;;;;;4.72;4.05;;;;;;;;;;5095940;28;20032;-60
2021/06/24 04:00:37;;;;;;;4.90;3.28;;;;;;;;;;5095815;28;20028;-60
2021/06/24 04:03:03;;;;;;;3.92;3.38;;;;;;;;;;5096139;28;20032;-60
2021/06/24 04:05:32;;;;;;;4.38;3.33;;;;;;;;;;5095463;28;20024;-60
2021/06/24 04:07:59;;;;;;;4.35;3.95;;;;;;;;;;5095736;28;20450;-60
2021/06/24 04:10:26;;;;;;;6.90;4.25;;;;;;;;;;5095629;28;20131;-61
2021/06/24 04:12:57;;;;;;;5.57;4.03;;;;;;;;;;5096157;28;20436;-60
2021/06/24 04:15:24;;;;;;;5.65;5.05;;;;;;;;;;5094918;28;20020;-60
2021/06/24 04:17:51;;;;;;;5.85;5.28;;;;;;;;;;5095176;28;20414;-61
2021/06/24 04:20:18;;;;;;;5.45;4.93;;;;;;;;;;5095421;28;20027;-60
2021/06/24 04:22:44;;;;;;;6.15;5.18;;;;;;;;;;5095772;28;20028;-60
2021/06/24 04:25:11;;;;;;;4.90;4.35;;;;;;;;;;5095359;28;20024;-61
2021/06/24 04:27:37;;;;;;;6.38;5.28;;;;;;;;;;5095019;28;20462;-62
2021/06/24 04:30:04;;;;;;;6.53;4.85;;;;;;;;;;5095606;28;20032;-62
2021/06/24 04:32:30;;;;;;;6.05;5.28;;;;;;;;;;5095441;28;20454;-60
2021/06/24 04:34:56;;;;;;;5.97;5.38;;;;;;;;;;5094826;28;20024;-60
2021/06/24 04:37:22;;;;;;;5.80;4.70;;;;;;;;;;5095156;28;20080;-60
2021/06/24 04:39:48;;;;;;;6.18;5.55;;;;;;;;;;5095418;28;20028;-60
2021/06/24 04:42:14;;;;;;;5.30;4.80;;;;;;;;;;5095137;28;20028;-60
2021/06/24 04:44:40;;;;;;;5.28;4.43;;;;;;;;;;5095061;28;20369;-60
2021/06/24 04:47:06;;;;;;;5.22;4.57;;;;;;;;;;5094890;28;20031;-60
2021/06/24 04:49:32;;;;;;;5.97;4.60;;;;;;;;;;5094865;28;20034;-61
2021/06/24 04:52:01;;;;;;;5.05;4.55;;;;;;;;;;5095088;28;20382;-61
2021/06/24 04:54:27;;;;;;;4.95;4.45;;;;;;;;;;5094685;28;20031;-61
2021/06/24 04:56:53;;;;;;;5.57;4.63;;;;;;;;;;5095565;28;20047;-61
2021/06/24 04:59:21;;;;;;;5.53;4.13;;;;;;;;;;5094545;28;20446;-61
2021/06/24 05:01:48;;;;;;;4.82;4.28;;;;;;;;;;5095206;28;20454;-61
2021/06/24 05:04:13;;;;;;;4.05;3.65;;;;;;;;;;5094647;28;20024;-61
2021/06/24 05:06:41;;;;;;;4.05;3.55;;;;;;;;;;5094817;28;20020;-61
2021/06/24 05:09:07;;;;;;;4.45;4.00;;;;;;;;;;5094357;28;20389;-60
2021/06/24 05:11:33;;;;;;;4.05;3.25;;;;;;;;;;5094368;28;20028;-60
2021/06/24 05:13:59;;;;;;;4.95;3.70;;;;;;;;;;5093617;28;20036;-60
2021/06/24 05:16:29;;;;;;;3.78;3.20;;;;;;;;;;5094632;28;20154;-60
2021/06/24 05:18:55;;;;;;;3.75;2.88;;;;;;;;;;5094317;28;20077;-60
2021/06/24 05:21:21;;;;;;;2.75;2.45;;;;;;;;;;5094830;28;20028;-60
2021/06/24 05:23:47;;;;;;;3.28;2.67;;;;;;;;;;5094536;28;20359;-59
2021/06/24 05:26:13;;;;;;;11.70;2.33;;;;;;;;;;5094754;28;20020;-60
2021/06/24 05:28:39;;;;;;;3.65;2.20;;;;;;;;;;5092932;28;20102;-60
2021/06/24 05:31:06;;;;;;;2.90;2.15;;;;;;;;;;5094328;28;20080;-60
2021/06/24 05:33:31;;;;;;;2.38;1.75;;;;;;;;;;5094362;28;20024;-60
2021/06/24 05:35:57;;;;;;;2.88;1.83;;;;;;;;;;5093674;28;20434;-60
2021/06/24 05:38:24;;;;;;;2.20;1.80;;;;;;;;;;5094394;28;20025;-60
2021/06/24 05:40:50;;;;;;;3.78;2.55;;;;;;;;;;5094468;28;20036;-59
2021/06/24 05:43:17;;;;;;;3.70;1.95;;;;;;;;;;5093988;28;20028;-60
2021/06/24 05:45:43;;;;;;;2.42;1.88;;;;;;;;;;5094230;28;20057;-60
2021/06/24 05:48:09;;;;;;;2.97;2.05;;;;;;;;;;5094409;28;20385;-59
2021/06/24 05:50:36;;;;;;;4.50;2.35;;;;;;;;;;5093905;28;20020;-60
2021/06/24 05:53:05;;;;;;;3.15;2.05;;;;;;;;;;5093853;28;20505;-59
2021/06/24 05:55:50;;;;;;;2.47;2.03;;;;;;;;;;5092612;28;20016;-60
2021/06/24 05:58:20;;;;;;;2.67;2.15;;;;;;;;;;5093908;28;20016;-59
2021/06/24 06:00:47;;;;;;;4.05;2.58;;;;;;;;;;5093626;28;20062;-60
2021/06/24 06:03:14;;;;;;;3.03;2.42;;;;;;;;;;5094414;28;20032;-60
2021/06/24 06:05:40;;;;;;;2.80;2.22;;;;;;;;;;5093609;28;20020;-60
2021/06/24 06:08:06;;;;;;;4.35;2.50;;;;;;;;;;5096902;28;20024;-60
2021/06/24 06:10:33;;;;;;;4.03;3.42;;;;;;;;;;5097572;28;20060;-60
2021/06/24 06:12:59;;;;;;;3.63;2.80;;;;;;;;;;5098236;28;20060;-59
2021/06/24 06:15:25;;;;;;;4.75;3.22;;;;;;;;;;5098219;28;20469;-59
2021/06/24 06:17:51;;;;;;;2.72;2.47;;;;;;;;;;5097855;28;20024;-60
2021/06/24 06:20:21;;;;;;;8.00;2.63;;;;;;;;;;5097458;28;20042;-60
2021/06/24 06:22:47;;;;;;;4.67;2.87;;;;;;;;;;5097820;28;20435;-60
2021/06/24 06:25:14;;;;;;;4.63;3.08;;;;;;;;;;5097931;28;20281;-60
2021/06/24 06:27:40;;;;;;;4.28;3.10;;;;;;;;;;5098434;28;20054;-60
2021/06/24 06:30:07;;;;;;;3.53;3.00;;;;;;;;;;5098320;28;20024;-60
2021/06/24 06:32:33;;;;;;;4.80;2.83;;;;;;;;;;5096186;28;20089;-59
2021/06/24 06:34:59;;;;;;;4.97;2.88;;;;;;;;;;5097504;28;20024;-60
2021/06/24 06:37:25;;;;;;;3.80;3.25;;;;;;;;;;5097772;28;20064;-60
2021/06/24 06:39:51;;;;;;;3.00;2.50;;;;;;;;;;5097361;28;20024;-60
2021/06/24 06:42:17;;;;;;;5.63;3.40;;;;;;;;;;5098031;28;20024;-60
2021/06/24 06:44:43;;;;;;;6.88;2.78;;;;;;;;;;5097387;28;20469;-59
2021/06/24 06:47:09;;;;;;;4.25;2.95;;;;;;;;;;5097293;28;20094;-60
2021/06/24 06:49:35;;;;;;;3.55;3.03;;;;;;;;;;5095998;28;20042;-59
2021/06/24 06:52:01;;;;;;;4.10;3.05;;;;;;;;;;5097492;28;20454;-59
2021/06/24 06:54:27;;;;;;;3.58;2.90;;;;;;;;;;5097324;28;20066;-59
2021/06/24 06:56:53;;;;;;;6.18;4.30;;;;;;;;;;5097119;28;20031;-60
2021/06/24 06:59:19;;;;;;;4.72;3.10;;;;;;;;;;5097432;28;20017;-60
2021/06/24 07:01:45;;;;;;;4.05;3.00;;;;;;;;;;5097841;28;20396;-59
2021/06/24 07:04:11;;;;;;;3.45;2.90;;;;;;;;;;5097454;28;20377;-59
2021/06/24 07:06:38;;;;;;;3.88;2.95;;;;;;;;;;5096847;28;20024;-60
2021/06/24 07:09:04;;;;;;;4.43;3.78;;;;;;;;;;5096840;28;20048;-60
2021/06/24 07:11:30;;;;;;;4.85;4.07;;;;;;;;;;5096752;28;20062;-59
2021/06/24 07:13:56;;;;;;;5.32;4.57;;;;;;;;;;5096751;28;20032;-60
2021/06/24 07:16:23;;;;;;;4.45;3.67;;;;;;;;;;5096775;28;20031;-60
2021/06/24 07:18:49;;;;;;;4.60;3.55;;;;;;;;;;5096796;28;20365;-60
2021/06/24 07:21:15;;;;;;;4.80;3.50;;;;;;;;;;5096660;28;20020;-59
2021/06/24 07:23:41;;;;;;;4.22;3.83;;;;;;;;;;5096524;28;20024;-60
2021/06/24 07:26:07;;;;;;;3.95;3.33;;;;;;;;;;5097190;28;20094;-60
2021/06/24 07:28:33;;;;;;;5.85;3.88;;;;;;;;;;5096558;28;20028;-59
2021/06/24 07:30:59;;;;;;;6.97;3.50;;;;;;;;;;5096622;28;20020;-60
2021/06/24 07:33:25;;;;;;;4.20;3.50;;;;;;;;;;5096662;28;20067;-60
2021/06/24 07:35:51;;;;;;;3.88;3.22;;;;;;;;;;5096412;28;20529;-59
2021/06/24 07:38:17;;;;;;;6.57;4.07;;;;;;;;;;5096289;28;20058;-59
2021/06/24 07:40:44;;;;;;;5.63;3.78;;;;;;;;;;5096796;28;20016;-59
2021/06/24 07:43:10;;;;;;;4.18;3.78;;;;;;;;;;5096275;28;20090;-59
2021/06/24 07:45:37;;;;;;;4.18;3.75;;;;;;;;;;5096146;28;20060;-59
2021/06/24 07:48:07;;;;;;;4.28;3.88;;;;;;;;;;5096316;28;20031;-59
2021/06/24 07:50:33;;;;;;;4.63;3.58;;;;;;;;;;5096383;28;20065;-59
2021/06/24 07:53:00;;;;;;;4.20;3.75;;;;;;;;;;5096570;28;20393;-59
2021/06/24 07:55:33;;;;;;;4.28;3.85;;;;;;;;;;5096593;28;20362;-59
2021/06/24 07:57:59;;;;;;;4.18;3.05;;;;;;;;;;5096016;28;20016;-59
2021/06/24 08:00:26;;;;;;;3.90;3.55;;;;;;;;;;5095772;28;20017;-59
2021/06/24 08:02:52;;;;;;;4.78;3.65;;;;;;;;;;5095482;28;20027;-59
2021/06/24 08:05:18;;;;;;;3.95;3.20;;;;;;;;;;5095445;28;20469;-59
2021/06/24 08:07:47;;;;;;;4.35;3.80;;;;;;;;;;5095625;28;20027;-59
2021/06/24 08:10:13;;;;;;;4.38;3.30;;;;;;;;;;5095727;28;20060;-59
2021/06/24 08:12:40;;;;;;;4.03;3.17;;;;;;;;;;5096153;28;20032;-60
2021/06/24 08:15:07;;;;;;;3.10;2.80;;;;;;;;;;5096172;28;20025;-59
2021/06/24 08:17:33;;;;;;;3.10;2.67;;;;;;;;;;5096341;28;20024;-59
2021/06/24 08:19:59;;;;;;;3.75;3.38;;;;;;;;;;5095557;28;20024;-59
2021/06/24 08:22:27;;;;;;;3.83;3.08;;;;;;;;;;5095668;28;20028;-59
2021/06/24 08:24:53;;;;;;;3.42;2.60;;;;;;;;;;5095386;28;20054;-59
2021/06/24 08:27:19;;;;;;;2.85;2.03;;;;;;;;;;5095293;28;20020;-59
2021/06/24 08:29:45;;;;;;;4.60;2.63;;;;;;;;;;5094410;28;20466;-60
2021/06/24 08:32:11;;;;;;;3.00;2.45;;;;;;;;;;5095815;28;20450;-59
2021/06/24 08:34:38;;;;;;;2.97;2.00;;;;;;;;;;5095266;28;20472;-59
2021/06/24 08:37:04;;;;;;;3.90;2.67;;;;;;;;;;5095261;28;20020;-59
2021/06/24 08:39:31;;;;;;;3.10;2.10;;;;;;;;;;5095829;28;20027;-59
2021/06/24 08:41:57;;;;;;;2.55;2.08;;;;;;;;;;5095114;28;20051;-59
2021/06/24 08:44:23;;;;;;;3.10;2.35;;;;;;;;;;5095013;28;20030;-59
2021/06/24 08:46:51;;;;;;;2.55;2.00;;;;;;;;;;5095256;28;20462;-59
2021/06/24 08:49:22;;;;;;;3.72;2.97;;;;;;;;;;5095758;28;20020;-59
2021/06/24 08:51:48;;;;;;;3.92;2.20;;;;;;;;;;5094722;28;20461;-59
2021/06/24 08:54:14;;;;;;;4.03;3.15;;;;;;;;;;5094842;28;20082;-59
2021/06/24 08:56:40;;;;;;;3.00;2.55;;;;;;;;;;5094845;28;20078;-59
2021/06/24 08:59:08;;;;;;;3.65;2.72;;;;;;;;;;5094919;28;20024;-59
2021/06/24 09:01:53;;;;;;;2.80;2.28;;;;;;;;;;5094799;28;20028;-59
2021/06/24 09:04:21;;;;;;;3.60;2.67;;;;;;;;;;5094654;28;20032;-59
2021/06/24 09:06:47;;;;;;;4.40;3.40;;;;;;;;;;5094897;28;20051;-59
2021/06/24 09:09:27;;;;;;;3.42;3.00;;;;;;;;;;5094442;28;20055;-59
2021/06/24 09:12:06;;;;;;;3.53;2.92;;;;;;;;;;5094894;28;20021;-59
2021/06/24 09:14:40;;;;;;;3.00;2.57;;;;;;;;;;5094539;28;20469;-59
2021/06/24 09:17:07;;;;;;;3.38;2.65;;;;;;;;;;5095024;28;20609;-59
2021/06/24 09:19:33;;;;;;;3.75;3.15;;;;;;;;;;5094475;28;20034;-59
2021/06/24 09:22:02;;;;;;;2.70;2.35;;;;;;;;;;5094750;28;20067;-59
2021/06/24 09:24:28;;;;;;;4.40;2.80;;;;;;;;;;5094238;28;20020;-59
2021/06/24 09:26:55;;;;;;;4.13;2.83;;;;;;;;;;5094793;28;20073;-59
2021/06/24 09:29:21;;;;;;;4.65;2.70;;;;;;;;;;5094557;28;20027;-59
2021/06/24 09:31:51;;;;;;;3.85;2.53;;;;;;;;;;5093519;28;20031;-60
2021/06/24 09:34:18;;;;;;;4.35;3.05;;;;;;;;;;5093340;28;20036;-60
2021/06/24 09:36:48;;;;;;;3.75;2.97;;;;;;;;;;5094175;28;20035;-59
2021/06/24 09:39:34;;;;;;;3.70;2.53;;;;;;;;;;5094308;28;20020;-60
2021/06/24 09:42:00;;;;;;;5.13;3.22;;;;;;;;;;5094445;28;20035;-59
2021/06/24 09:44:26;;;;;;;3.05;2.72;;;;;;;;;;5094085;28;20027;-60
2021/06/24 09:46:53;;;;;;;4.80;3.05;;;;;;;;;;5093560;28;20392;-59
2021/06/24 09:49:30;;;;;;;3.28;2.92;;;;;;;;;;5093970;28;20020;-60
2021/06/24 09:51:57;;;;;;;3.22;2.17;;;;;;;;;;5093955;28;20024;-60
2021/06/24 09:54:31;;;;;;;3.00;1.88;;;;;;;;;;5093499;28;20032;-60
2021/06/24 09:56:57;;;;;;;3.10;2.42;;;;;;;;;;5093447;28;20369;-60
2021/06/24 09:59:32;;;;;;;2.67;2.33;;;;;;;;;;5093673;28;20035;-60
2021/06/24 10:02:04;;;;;;;2.70;2.30;;;;;;;;;;5092937;28;20366;-59
2021/06/24 10:04:34;;;;;;;4.72;3.00;;;;;;;;;;5093523;28;20025;-60
2021/06/24 10:07:01;;;;;;;3.38;2.95;;;;;;;;;;5093735;28;20464;-60
2021/06/24 10:09:27;;;;;;;4.07;3.13;;;;;;;;;;5093829;28;20050;-59
2021/06/24 10:11:54;;;;;;;4.50;2.97;;;;;;;;;;5093537;28;20028;-60
2021/06/24 10:14:20;;;;;;;4.82;3.17;;;;;;;;;;5094142;28;20028;-60
2021/06/24 10:16:53;;;;;;;2.20;1.55;;;;;;;;;;5093496;28;20031;-60
2021/06/24 10:19:39;;;;;;;3.45;2.03;;;;;;;;;;5093503;28;20062;-60
2021/06/24 10:22:05;;;;;;;2.75;2.05;;;;;;;;;;5093077;28;20016;-60
2021/06/24 10:24:37;;;;;;;8.52;2.58;;;;;;;;;;5093626;28;20458;-60
2021/06/24 10:27:05;;;;;;;3.20;2.17;;;;;;;;;;5093578;28;20073;-60
2021/06/24 10:29:45;;;;;;;3.60;1.70;;;;;;;;;;5093848;28;20369;-60
2021/06/24 10:32:24;;;;;;;3.50;1.93;;;;;;;;;;5094647;28;20024;-60
2021/06/24 10:34:52;;;;;;;3.13;1.58;;;;;;;;;;5093539;28;20258;-60
2021/06/24 10:37:22;;;;;;;3.78;1.30;;;;;;;;;;5093452;28;20031;-60
2021/06/24 10:39:48;;;;;;;2.83;1.80;;;;;;;;;;5093492;28;20024;-60
2021/06/24 10:42:15;;;;;;;2.20;1.50;;;;;;;;;;5093370;28;20024;-60
2021/06/24 10:44:56;;;;;;;2.40;1.10;;;;;;;;;;5093410;28;20023;-60
2021/06/24 10:47:28;;;;;;;3.15;1.67;;;;;;;;;;5094215;28;20067;-60
2021/06/24 10:49:54;;;;;;;2.72;1.55;;;;;;;;;;5093618;28;20016;-60
2021/06/24 10:52:27;;;;;;;2.63;1.35;;;;;;;;;;5092306;28;20035;-60
2021/06/24 10:55:02;;;;;;;2.60;1.88;;;;;;;;;;5098089;28;20105;-60
2021/06/24 10:57:34;;;;;;;2.58;1.50;;;;;;;;;;5096705;28;20020;-60
2021/06/24 11:00:19;;;;;;;2.45;1.52;;;;;;;;;;5096949;28;20024;-60
2021/06/24 11:02:47;;;;;;;2.65;1.55;;;;;;;;;;5097381;28;20039;-60
2021/06/24 11:05:18;;;;;;;2.30;1.42;;;;;;;;;;5096319;28;20036;-60
2021/06/24 11:07:45;;;;;;;5.15;1.98;;;;;;;;;;5096809;28;20042;-60
2021/06/24 11:10:19;;;;;;;2.75;1.63;;;;;;;;;;5096467;28;20086;-60
2021/06/24 11:12:54;;;;;;;2.00;1.20;;;;;;;;;;5096804;28;20028;-60
2021/06/24 11:15:39;;;;;;;2.40;1.60;;;;;;;;;;5096914;28;20081;-60
2021/06/24 11:18:05;;;;;;;6.38;1.85;;;;;;;;;;5096866;28;20114;-60
2021/06/24 11:20:43;;;;;;;2.45;1.40;;;;;;;;;;5096712;28;20052;-60
2021/06/24 11:23:30;;;;;;;2.58;1.23;;;;;;;;;;5096698;28;20032;-60
2021/06/24 11:26:07;;;;;;;2.83;1.83;;;;;;;;;;5097074;28;20024;-59
2021/06/24 11:31:39;;;;;;;2.08;1.27;;;;;;;;;;5096832;28;20028;-60
2021/06/24 11:36:32;;;;;;;7.50;1.50;;;;;;;;;;5096349;28;20055;-60
2021/06/24 11:38:58;;;;;;;1.63;0.85;;;;;;;;;;5096617;28;20445;-60
2021/06/24 11:41:24;;;;;;;1.98;1.05;;;;;;;;;;5096935;28;20028;-60
2021/06/24 11:43:57;;;;;;;2.13;1.08;;;;;;;;;;5096151;28;20030;-60
2021/06/24 11:46:27;;;;;;;3.35;1.58;;;;;;;;;;5096150;28;20024;-60
2021/06/24 12:05:29;;;;;;;1.90;1.30;;;;;;;;;;5095904;28;20032;-60
2021/06/24 12:07:55;;;;;;;2.72;1.15;;;;;;;;;;5095731;28;20114;-60
2021/06/24 12:10:24;;;;;;;2.20;1.10;;;;;;;;;;5095991;28;20154;-60
2021/06/24 12:12:51;;;;;;;3.90;2.10;;;;;;;;;;5095524;28;20032;-58
2021/06/24 12:15:17;;;;;;;1.85;1.20;;;;;;;;;;5096031;28;20028;-59
2021/06/24 12:17:43;;;;;;;1.98;1.20;;;;;;;;;;5095516;28;20016;-59
2021/06/24 12:20:15;;;;;;;4.57;1.40;;;;;;;;;;5095367;28;20024;-59
2021/06/24 12:22:42;;;;;;;2.42;1.08;;;;;;;;;;5095719;28;20032;-59
2021/06/24 12:25:16;;;;;;;1.38;0.85;;;;;;;;;;5094327;28;20051;-60
2021/06/24 12:27:45;;;;;;;2.00;1.33;;;;;;;;;;5096043;28;20054;-60
2021/06/24 12:30:18;;;;;;;1.52;0.82;;;;;;;;;;5095660;28;20044;-59
2021/06/24 12:32:57;;;;;;;2.65;0.85;;;;;;;;;;5095766;28;20032;-60
2021/06/24 12:35:25;;;;;;;1.45;0.90;;;;;;;;;;5095821;28;20051;-59
2021/06/24 12:37:52;;;;;;;1.92;0.90;;;;;;;;;;5095725;28;20092;-60
2021/06/24 12:40:19;;;;;;;1.95;1.00;;;;;;;;;;5095514;28;20073;-59
2021/06/24 12:42:52;;;;;;;1.38;0.70;;;;;;;;;;5095507;28;20032;-59
2021/06/24 12:45:19;;;;;;;1.23;0.52;;;;;;;;;;5094769;28;20044;-60
2021/06/24 12:47:46;;;;;;;1.25;0.63;;;;;;;;;;5095015;28;20020;-60
2021/06/24 12:50:18;;;;;;;1.15;0.65;;;;;;;;;;5094907;28;20027;-60
2021/06/24 12:52:50;;;;;;;3.28;0.40;;;;;;;;;;5094847;28;20028;-60
2021/06/24 12:55:38;;;;;;;2.15;0.50;;;;;;;;;;5094855;28;20023;-60
2021/06/24 12:58:05;;;;;;;0.77;0.30;;;;;;;;;;5094919;28;20055;-60
2021/06/24 13:00:31;;;;;;;0.50;0.30;;;;;;;;;;5094487;28;20017;-60
2021/06/24 13:02:57;;;;;;;0.80;0.40;;;;;;;;;;5094653;28;20020;-60
2021/06/24 13:05:26;;;;;;;1.27;0.60;;;;;;;;;;5094457;28;20020;-60
2021/06/24 13:07:56;;;;;;;2.45;0.70;;;;;;;;;;5094758;28;20023;-60
2021/06/24 13:10:22;;;;;;;1.15;0.47;;;;;;;;;;5095395;28;20059;-60
2021/06/24 13:12:48;;;;;;;1.48;0.60;;;;;;;;;;5094707;28;20024;-58
2021/06/24 13:15:30;;;;;;;1.80;0.70;;;;;;;;;;5094276;28;20358;-60
2021/06/24 13:17:57;;;;;;;1.15;0.50;;;;;;;;;;5094309;28;20024;-60
2021/06/24 13:20:24;;;;;;;2.05;0.60;;;;;;;;;;5094204;28;20043;-59
2021/06/24 13:22:50;;;;;;;0.75;0.50;;;;;;;;;;5094606;28;20138;-59
2021/06/24 13:25:20;;;;;;;1.35;0.68;;;;;;;;;;5094410;28;20370;-59
2021/06/24 13:27:47;;;;;;;2.40;0.60;;;;;;;;;;5094835;28;20071;-59
2021/06/24 13:30:13;;;;;;;1.02;0.55;;;;;;;;;;5094105;28;20032;-59
2021/06/24 13:32:40;;;;;;;1.15;0.50;;;;;;;;;;5094520;28;20024;-59
2021/06/24 13:35:23;;;;;;;1.08;0.47;;;;;;;;;;5094428;28;20042;-59
2021/06/24 13:37:49;;;;;;;0.95;0.40;;;;;;;;;;5094151;28;20106;-59
2021/06/24 13:40:19;;;;;;;1.58;0.57;;;;;;;;;;5094581;28;20099;-59
2021/06/24 13:43:04;;;;;;;1.83;0.70;;;;;;;;;;5094850;28;20027;-59
2021/06/24 13:45:33;;;;;;;1.23;0.52;;;;;;;;;;5094864;28;20035;-59
2021/06/24 13:48:00;;;;;;;1.90;0.70;;;;;;;;;;5094810;28;20539;-60
2021/06/24 13:50:26;;;;;;;3.97;1.10;;;;;;;;;;5093229;28;20040;-59
2021/06/24 13:52:52;;;;;;;2.25;1.27;;;;;;;;;;5093983;28;20031;-59
2021/06/24 13:55:18;;;;;;;8.02;1.25;;;;;;;;;;5093955;28;20154;-59
2021/06/24 13:57:44;;;;;;;0.98;0.52;;;;;;;;;;5094194;28;20107;-59
2021/06/24 14:00:10;;;;;;;1.65;0.70;;;;;;;;;;5093945;28;20020;-59
2021/06/24 14:02:36;;;;;;;0.98;0.50;;;;;;;;;;5093790;28;20028;-59
2021/06/24 14:05:03;;;;;;;1.35;0.80;;;;;;;;;;5093979;28;20028;-59
2021/06/24 14:07:29;;;;;;;1.15;0.60;;;;;;;;;;5093541;28;20031;-58
2021/06/24 14:09:55;;;;;;;0.85;0.40;;;;;;;;;;5093985;28;20048;-59
2021/06/24 14:12:21;;;;;;;1.02;0.50;;;;;;;;;;5094169;28;20113;-60
2021/06/24 14:14:47;;;;;;;3.92;1.02;;;;;;;;;;5093254;28;20078;-60
2021/06/24 14:17:13;;;;;;;2.15;1.27;;;;;;;;;;5092428;28;20024;-60
2021/06/24 14:19:39;;;;;;;2.30;1.10;;;;;;;;;;5093665;28;20028;-60
2021/06/24 14:22:09;;;;;;;2.03;0.80;;;;;;;;;;5093668;28;20032;-60
2021/06/24 14:24:35;;;;;;;1.98;0.85;;;;;;;;;;5093537;28;20024;-60
2021/06/24 14:27:02;;;;;;;1.30;0.70;;;;;;;;;;5094443;28;20024;-59
2021/06/24 14:29:28;;;;;;;1.77;0.70;;;;;;;;;;5097430;28;20026;-58
2021/06/24 14:31:56;;;;;;;2.08;1.13;;;;;;;;;;5098413;28;20034;-59
2021/06/24 14:34:25;;;;;;;1.52;0.82;;;;;;;;;;5097122;28;20024;-59
2021/06/24 14:36:51;;;;;;;2.33;1.08;;;;;;;;;;5097280;28;20481;-59
2021/06/24 14:39:17;;;;;;;3.45;1.55;;;;;;;;;;5097494;28;20381;-59
2021/06/24 14:41:43;;;;;;;2.97;1.15;;;;;;;;;;5098004;28;20024;-59
2021/06/24 14:44:09;;;;;;;2.33;1.45;;;;;;;;;;5097254;28;20161;-59
2021/06/24 14:46:36;;;;;;;1.52;1.00;;;;;;;;;;5097649;28;20024;-59
2021/06/24 14:49:02;;;;;;;1.63;0.80;;;;;;;;;;5097375;28;20024;-59
2021/06/24 14:51:29;;;;;;;2.10;0.93;;;;;;;;;;5097397;28;20028;-59
2021/06/24 14:53:55;;;;;;;3.25;1.13;;;;;;;;;;5097155;28;20028;-59
2021/06/24 14:56:23;;;;;;;1.77;1.10;;;;;;;;;;5097964;28;20020;-59
2021/06/24 14:58:50;;;;;;;4.28;1.30;;;;;;;;;;5097111;28;20027;-60
2021/06/24 15:01:16;;;;;;;2.47;1.10;;;;;;;;;;5097992;28;20028;-59
2021/06/24 15:03:43;;;;;;;1.55;0.88;;;;;;;;;;5097011;28;20032;-59
2021/06/24 15:06:09;;;;;;;1.60;1.05;;;;;;;;;;5097114;28;20028;-60
2021/06/24 15:08:35;;;;;;;1.55;0.95;;;;;;;;;;5096778;28;20048;-60